<?xml version="1.0" encoding="UTF-8" standalone="no" ?>
<gpx xmlns="http://www.topografix.com/GPX/1/1" xmlns:xsi="http://www.w3.org/2001/XMLSchema-instance" xsi:schemaLocation="http://www.topografix.com/GPX/1/1 http://www.topografix.com/GPX/1/1/gpx.xsd" version="1.1" creator="VisuGPX - https://www.visugpx.com">
  <metadata>
    <name>F- Reco trail à VTT </name>
    <desc><![CDATA[ « Reco trail à VTT »  -  Nord de St Geniez  (47 km  -  887 m )   
US-CERGY-CYCLO-AUBRAC
]]></desc>
  </metadata>
  <trk>
    <name><![CDATA[Reco trail à VTT ]]></name>
    <trkseg>
      <trkpt lat="44.66214" lon="3.04655">
        <ele>1177</ele>
        <time>2016-11-20T15:59:56Z</time>
      </trkpt>
      <trkpt lat="44.66268" lon="3.04475">
        <ele>1181</ele>
        <time>2016-11-20T16:01:56Z</time>
      </trkpt>
      <trkpt lat="44.66239" lon="3.04293">
        <ele>1182</ele>
        <time>2016-11-20T16:03:56Z</time>
      </trkpt>
      <trkpt lat="44.66045" lon="3.04021">
        <ele>1184</ele>
        <time>2016-11-20T16:05:56Z</time>
      </trkpt>
      <trkpt lat="44.66074" lon="3.03891">
        <ele>1199</ele>
        <time>2016-11-20T16:07:56Z</time>
      </trkpt>
      <trkpt lat="44.66128" lon="3.03818">
        <ele>1204</ele>
        <time>2016-11-20T16:09:56Z</time>
      </trkpt>
      <trkpt lat="44.6607" lon="3.03698">
        <ele>1211</ele>
        <time>2016-11-20T16:11:56Z</time>
      </trkpt>
      <trkpt lat="44.65955" lon="3.03666">
        <ele>1211</ele>
        <time>2016-11-20T16:13:56Z</time>
      </trkpt>
      <trkpt lat="44.65804" lon="3.03243">
        <ele>1216</ele>
        <time>2016-11-20T16:15:56Z</time>
      </trkpt>
      <trkpt lat="44.65797" lon="3.02961">
        <ele>1210</ele>
        <time>2016-11-20T16:17:56Z</time>
      </trkpt>
      <trkpt lat="44.65686" lon="3.0268">
        <ele>1218</ele>
        <time>2016-11-20T16:19:56Z</time>
      </trkpt>
      <trkpt lat="44.65607" lon="3.02518">
        <ele>1229</ele>
        <time>2016-11-20T16:21:56Z</time>
      </trkpt>
      <trkpt lat="44.656" lon="3.02388">
        <ele>1238</ele>
        <time>2016-11-20T16:23:56Z</time>
      </trkpt>
      <trkpt lat="44.65808" lon="3.02336">
        <ele>1240</ele>
        <time>2016-11-20T16:25:56Z</time>
      </trkpt>
      <trkpt lat="44.65905" lon="3.02398">
        <ele>1235</ele>
        <time>2016-11-20T16:27:56Z</time>
      </trkpt>
      <trkpt lat="44.66067" lon="3.02398">
        <ele>1213</ele>
        <time>2016-11-20T16:29:56Z</time>
      </trkpt>
      <trkpt lat="44.66182" lon="3.02518">
        <ele>1196</ele>
        <time>2016-11-20T16:31:56Z</time>
      </trkpt>
      <trkpt lat="44.66247" lon="3.02659">
        <ele>1185</ele>
        <time>2016-11-20T16:33:56Z</time>
      </trkpt>
      <trkpt lat="44.66304" lon="3.02711">
        <ele>1188</ele>
        <time>2016-11-20T16:35:56Z</time>
      </trkpt>
      <trkpt lat="44.66315" lon="3.02654">
        <ele>1186</ele>
        <time>2016-11-20T16:37:56Z</time>
      </trkpt>
      <trkpt lat="44.66415" lon="3.0256">
        <ele>1188</ele>
        <time>2016-11-20T16:39:56Z</time>
      </trkpt>
      <trkpt lat="44.66415" lon="3.02518">
        <ele>1188</ele>
        <time>2016-11-20T16:41:56Z</time>
      </trkpt>
      <trkpt lat="44.66473" lon="3.02456">
        <ele>1184</ele>
        <time>2016-11-20T16:43:56Z</time>
      </trkpt>
      <trkpt lat="44.6648" lon="3.02113">
        <ele>1195</ele>
        <time>2016-11-20T16:45:56Z</time>
      </trkpt>
      <trkpt lat="44.66563" lon="3.01909">
        <ele>1179</ele>
        <time>2016-11-20T16:47:56Z</time>
      </trkpt>
      <trkpt lat="44.66523" lon="3.01747">
        <ele>1176</ele>
        <time>2016-11-20T16:49:56Z</time>
      </trkpt>
      <trkpt lat="44.66433" lon="3.01721">
        <ele>1184</ele>
        <time>2016-11-20T16:51:56Z</time>
      </trkpt>
      <trkpt lat="44.66369" lon="3.01533">
        <ele>1186</ele>
        <time>2016-11-20T16:53:56Z</time>
      </trkpt>
      <trkpt lat="44.66257" lon="3.01549">
        <ele>1184</ele>
        <time>2016-11-20T16:55:56Z</time>
      </trkpt>
      <trkpt lat="44.66196" lon="3.01497">
        <ele>1192</ele>
        <time>2016-11-20T16:57:56Z</time>
      </trkpt>
      <trkpt lat="44.66103" lon="3.01528">
        <ele>1193</ele>
        <time>2016-11-20T16:59:56Z</time>
      </trkpt>
      <trkpt lat="44.65981" lon="3.01455">
        <ele>1195</ele>
        <time>2016-11-20T17:01:56Z</time>
      </trkpt>
      <trkpt lat="44.6597" lon="3.01314">
        <ele>1211</ele>
        <time>2016-11-20T17:03:56Z</time>
      </trkpt>
      <trkpt lat="44.66063" lon="3.01241">
        <ele>1209</ele>
        <time>2016-11-20T17:05:56Z</time>
      </trkpt>
      <trkpt lat="44.66088" lon="3.01039">
        <ele>1215</ele>
        <time>2016-11-20T17:07:56Z</time>
      </trkpt>
      <trkpt lat="44.65952" lon="3.00746">
        <ele>1232</ele>
        <time>2016-11-20T17:09:56Z</time>
      </trkpt>
      <trkpt lat="44.65966" lon="3.00663">
        <ele>1224</ele>
        <time>2016-11-20T17:11:56Z</time>
      </trkpt>
      <trkpt lat="44.65948" lon="3.00517">
        <ele>1233</ele>
        <time>2016-11-20T17:13:56Z</time>
      </trkpt>
      <trkpt lat="44.66042" lon="3.00397">
        <ele>1237</ele>
        <time>2016-11-20T17:15:56Z</time>
      </trkpt>
      <trkpt lat="44.66117" lon="3.00412">
        <ele>1228</ele>
        <time>2016-11-20T17:17:56Z</time>
      </trkpt>
      <trkpt lat="44.66344" lon="3.00151">
        <ele>1240</ele>
        <time>2016-11-20T17:19:56Z</time>
      </trkpt>
      <trkpt lat="44.66376" lon="3.0001">
        <ele>1240</ele>
        <time>2016-11-20T17:21:56Z</time>
      </trkpt>
      <trkpt lat="44.66387" lon="2.9988">
        <ele>1230</ele>
        <time>2016-11-20T17:23:56Z</time>
      </trkpt>
      <trkpt lat="44.6643" lon="2.9988">
        <ele>1221</ele>
        <time>2016-11-20T17:25:56Z</time>
      </trkpt>
      <trkpt lat="44.66451" lon="2.99786">
        <ele>1221</ele>
        <time>2016-11-20T17:27:56Z</time>
      </trkpt>
      <trkpt lat="44.66538" lon="2.9987">
        <ele>1223</ele>
        <time>2016-11-20T17:29:56Z</time>
      </trkpt>
      <trkpt lat="44.66653" lon="3.0012">
        <ele>1227</ele>
        <time>2016-11-20T17:31:56Z</time>
      </trkpt>
      <trkpt lat="44.6666" lon="3.00063">
        <ele>1236</ele>
        <time>2016-11-20T17:33:56Z</time>
      </trkpt>
      <trkpt lat="44.66803" lon="3.00136">
        <ele>1254</ele>
        <time>2016-11-20T17:35:56Z</time>
      </trkpt>
      <trkpt lat="44.66925" lon="3.00287">
        <ele>1257</ele>
        <time>2016-11-20T17:37:56Z</time>
      </trkpt>
      <trkpt lat="44.6704" lon="3.00167">
        <ele>1271</ele>
        <time>2016-11-20T17:39:56Z</time>
      </trkpt>
      <trkpt lat="44.67012" lon="3.00057">
        <ele>1278</ele>
        <time>2016-11-20T17:41:56Z</time>
      </trkpt>
      <trkpt lat="44.67087" lon="2.99979">
        <ele>1275</ele>
        <time>2016-11-20T17:43:56Z</time>
      </trkpt>
      <trkpt lat="44.67159" lon="2.99828">
        <ele>1273</ele>
        <time>2016-11-20T17:45:56Z</time>
      </trkpt>
      <trkpt lat="44.67145" lon="2.99718">
        <ele>1273</ele>
        <time>2016-11-20T17:47:56Z</time>
      </trkpt>
      <trkpt lat="44.6717" lon="2.99624">
        <ele>1271</ele>
        <time>2016-11-20T17:49:56Z</time>
      </trkpt>
      <trkpt lat="44.6703" lon="2.99352">
        <ele>1280</ele>
        <time>2016-11-20T17:51:56Z</time>
      </trkpt>
      <trkpt lat="44.66922" lon="2.9918">
        <ele>1284</ele>
        <time>2016-11-20T17:53:56Z</time>
      </trkpt>
      <trkpt lat="44.66796" lon="2.99013">
        <ele>1287</ele>
        <time>2016-11-20T17:55:56Z</time>
      </trkpt>
      <trkpt lat="44.668" lon="2.98872">
        <ele>1290</ele>
        <time>2016-11-20T17:57:56Z</time>
      </trkpt>
      <trkpt lat="44.66785" lon="2.98653">
        <ele>1294</ele>
        <time>2016-11-20T17:59:56Z</time>
      </trkpt>
      <trkpt lat="44.66713" lon="2.98491">
        <ele>1306</ele>
        <time>2016-11-20T18:01:56Z</time>
      </trkpt>
      <trkpt lat="44.66559" lon="2.9847">
        <ele>1324</ele>
        <time>2016-11-20T18:03:56Z</time>
      </trkpt>
      <trkpt lat="44.66602" lon="2.98339">
        <ele>1335</ele>
        <time>2016-11-20T18:05:56Z</time>
      </trkpt>
      <trkpt lat="44.66562" lon="2.98282">
        <ele>1340</ele>
        <time>2016-11-20T18:07:56Z</time>
      </trkpt>
      <trkpt lat="44.6657" lon="2.98214">
        <ele>1342</ele>
        <time>2016-11-20T18:09:56Z</time>
      </trkpt>
      <trkpt lat="44.66534" lon="2.98198">
        <ele>1344</ele>
        <time>2016-11-20T18:11:56Z</time>
      </trkpt>
      <trkpt lat="44.66555" lon="2.98068">
        <ele>1348</ele>
        <time>2016-11-20T18:13:56Z</time>
      </trkpt>
      <trkpt lat="44.66591" lon="2.98016">
        <ele>1347</ele>
        <time>2016-11-20T18:15:56Z</time>
      </trkpt>
      <trkpt lat="44.66595" lon="2.97964">
        <ele>1346</ele>
        <time>2016-11-20T18:17:56Z</time>
      </trkpt>
      <trkpt lat="44.66624" lon="2.97937">
        <ele>1342</ele>
        <time>2016-11-20T18:19:56Z</time>
      </trkpt>
      <trkpt lat="44.66663" lon="2.97749">
        <ele>1325</ele>
        <time>2016-11-20T18:21:56Z</time>
      </trkpt>
      <trkpt lat="44.66642" lon="2.9764">
        <ele>1322</ele>
        <time>2016-11-20T18:23:56Z</time>
      </trkpt>
      <trkpt lat="44.66677" lon="2.9753">
        <ele>1314</ele>
        <time>2016-11-20T18:25:56Z</time>
      </trkpt>
      <trkpt lat="44.66688" lon="2.97431">
        <ele>1312</ele>
        <time>2016-11-20T18:27:56Z</time>
      </trkpt>
      <trkpt lat="44.66609" lon="2.97248">
        <ele>1311</ele>
        <time>2016-11-20T18:29:56Z</time>
      </trkpt>
      <trkpt lat="44.66534" lon="2.97209">
        <ele>1322</ele>
        <time>2016-11-20T18:31:56Z</time>
      </trkpt>
      <trkpt lat="44.66437" lon="2.96943">
        <ele>1336</ele>
        <time>2016-11-20T18:33:56Z</time>
      </trkpt>
      <trkpt lat="44.66505" lon="2.96828">
        <ele>1335</ele>
        <time>2016-11-20T18:35:56Z</time>
      </trkpt>
      <trkpt lat="44.66559" lon="2.96619">
        <ele>1331</ele>
        <time>2016-11-20T18:37:56Z</time>
      </trkpt>
      <trkpt lat="44.66688" lon="2.96593">
        <ele>1320</ele>
        <time>2016-11-20T18:39:56Z</time>
      </trkpt>
      <trkpt lat="44.66789" lon="2.96462">
        <ele>1319</ele>
        <time>2016-11-20T18:41:56Z</time>
      </trkpt>
      <trkpt lat="44.66842" lon="2.96401">
        <ele>1322</ele>
        <time>2016-11-20T18:43:56Z</time>
      </trkpt>
      <trkpt lat="44.66778" lon="2.9627">
        <ele>1327</ele>
        <time>2016-11-20T18:45:56Z</time>
      </trkpt>
      <trkpt lat="44.66454" lon="2.9591">
        <ele>1325</ele>
        <time>2016-11-20T18:47:56Z</time>
      </trkpt>
      <trkpt lat="44.66109" lon="2.95837">
        <ele>1329</ele>
        <time>2016-11-20T18:49:56Z</time>
      </trkpt>
      <trkpt lat="44.65937" lon="2.95905">
        <ele>1322</ele>
        <time>2016-11-20T18:51:56Z</time>
      </trkpt>
      <trkpt lat="44.65876" lon="2.95863">
        <ele>1322</ele>
        <time>2016-11-20T18:53:56Z</time>
      </trkpt>
      <trkpt lat="44.65833" lon="2.95779">
        <ele>1320</ele>
        <time>2016-11-20T18:55:56Z</time>
      </trkpt>
      <trkpt lat="44.65624" lon="2.95644">
        <ele>1324</ele>
        <time>2016-11-20T18:57:56Z</time>
      </trkpt>
      <trkpt lat="44.65486" lon="2.95528">
        <ele>1319</ele>
        <time>2016-11-20T18:59:56Z</time>
      </trkpt>
      <trkpt lat="44.65436" lon="2.95575">
        <ele>1319</ele>
        <time>2016-11-20T19:01:56Z</time>
      </trkpt>
      <trkpt lat="44.6531" lon="2.95481">
        <ele>1323</ele>
        <time>2016-11-20T19:03:56Z</time>
      </trkpt>
      <trkpt lat="44.6526" lon="2.95398">
        <ele>1327</ele>
        <time>2016-11-20T19:05:56Z</time>
      </trkpt>
      <trkpt lat="44.65242" lon="2.95241">
        <ele>1321</ele>
        <time>2016-11-20T19:07:56Z</time>
      </trkpt>
      <trkpt lat="44.65178" lon="2.95189">
        <ele>1319</ele>
        <time>2016-11-20T19:09:56Z</time>
      </trkpt>
      <trkpt lat="44.65052" lon="2.95022">
        <ele>1305</ele>
        <time>2016-11-20T19:11:56Z</time>
      </trkpt>
      <trkpt lat="44.64976" lon="2.9486">
        <ele>1298</ele>
        <time>2016-11-20T19:13:56Z</time>
      </trkpt>
      <trkpt lat="44.64865" lon="2.94563">
        <ele>1284</ele>
        <time>2016-11-20T19:15:56Z</time>
      </trkpt>
      <trkpt lat="44.64689" lon="2.94385">
        <ele>1266</ele>
        <time>2016-11-20T19:17:56Z</time>
      </trkpt>
      <trkpt lat="44.64628" lon="2.94432">
        <ele>1268</ele>
        <time>2016-11-20T19:19:56Z</time>
      </trkpt>
      <trkpt lat="44.64383" lon="2.94416">
        <ele>1259</ele>
        <time>2016-11-20T19:21:56Z</time>
      </trkpt>
      <trkpt lat="44.64308" lon="2.94312">
        <ele>1262</ele>
        <time>2016-11-20T19:23:56Z</time>
      </trkpt>
      <trkpt lat="44.64096" lon="2.94406">
        <ele>1315</ele>
        <time>2016-11-20T19:25:56Z</time>
      </trkpt>
      <trkpt lat="44.63992" lon="2.94239">
        <ele>1304</ele>
        <time>2016-11-20T19:27:56Z</time>
      </trkpt>
      <trkpt lat="44.63906" lon="2.94124">
        <ele>1301</ele>
        <time>2016-11-20T19:29:56Z</time>
      </trkpt>
      <trkpt lat="44.63849" lon="2.94239">
        <ele>1296</ele>
        <time>2016-11-20T19:31:56Z</time>
      </trkpt>
      <trkpt lat="44.63755" lon="2.94265">
        <ele>1285</ele>
        <time>2016-11-20T19:33:56Z</time>
      </trkpt>
      <trkpt lat="44.63683" lon="2.94328">
        <ele>1274</ele>
        <time>2016-11-20T19:35:56Z</time>
      </trkpt>
      <trkpt lat="44.63504" lon="2.94296">
        <ele>1253</ele>
        <time>2016-11-20T19:37:56Z</time>
      </trkpt>
      <trkpt lat="44.63383" lon="2.9439">
        <ele>1238</ele>
        <time>2016-11-20T19:39:56Z</time>
      </trkpt>
      <trkpt lat="44.63193" lon="2.94312">
        <ele>1228</ele>
        <time>2016-11-20T19:41:56Z</time>
      </trkpt>
      <trkpt lat="44.62977" lon="2.94161">
        <ele>1205</ele>
        <time>2016-11-20T19:43:56Z</time>
      </trkpt>
      <trkpt lat="44.62799" lon="2.94291">
        <ele>1178</ele>
        <time>2016-11-20T19:45:56Z</time>
      </trkpt>
      <trkpt lat="44.62694" lon="2.94396">
        <ele>1155</ele>
        <time>2016-11-20T19:47:56Z</time>
      </trkpt>
      <trkpt lat="44.62551" lon="2.9437">
        <ele>1122</ele>
        <time>2016-11-20T19:49:56Z</time>
      </trkpt>
      <trkpt lat="44.62551" lon="2.94631">
        <ele>1113</ele>
        <time>2016-11-20T19:51:56Z</time>
      </trkpt>
      <trkpt lat="44.62576" lon="2.9486">
        <ele>1127</ele>
        <time>2016-11-20T19:53:56Z</time>
      </trkpt>
      <trkpt lat="44.62594" lon="2.94991">
        <ele>1140</ele>
        <time>2016-11-20T19:55:56Z</time>
      </trkpt>
      <trkpt lat="44.62461" lon="2.95205">
        <ele>1158</ele>
        <time>2016-11-20T19:57:56Z</time>
      </trkpt>
      <trkpt lat="44.62353" lon="2.95179">
        <ele>1173</ele>
        <time>2016-11-20T19:59:56Z</time>
      </trkpt>
      <trkpt lat="44.6222" lon="2.95132">
        <ele>1201</ele>
        <time>2016-11-20T20:01:56Z</time>
      </trkpt>
      <trkpt lat="44.62019" lon="2.9522">
        <ele>1229</ele>
        <time>2016-11-20T20:03:56Z</time>
      </trkpt>
      <trkpt lat="44.61951" lon="2.95153">
        <ele>1230</ele>
        <time>2016-11-20T20:05:56Z</time>
      </trkpt>
      <trkpt lat="44.61822" lon="2.95309">
        <ele>1235</ele>
        <time>2016-11-20T20:07:56Z</time>
      </trkpt>
      <trkpt lat="44.61776" lon="2.95299">
        <ele>1225</ele>
        <time>2016-11-20T20:09:56Z</time>
      </trkpt>
      <trkpt lat="44.61704" lon="2.95429">
        <ele>1236</ele>
        <time>2016-11-20T20:11:56Z</time>
      </trkpt>
      <trkpt lat="44.61258" lon="2.95654">
        <ele>1222</ele>
        <time>2016-11-20T20:13:56Z</time>
      </trkpt>
      <trkpt lat="44.61122" lon="2.9569">
        <ele>1216</ele>
        <time>2016-11-20T20:15:56Z</time>
      </trkpt>
      <trkpt lat="44.61089" lon="2.95784">
        <ele>1212</ele>
        <time>2016-11-20T20:17:56Z</time>
      </trkpt>
      <trkpt lat="44.60928" lon="2.95941">
        <ele>1200</ele>
        <time>2016-11-20T20:19:56Z</time>
      </trkpt>
      <trkpt lat="44.60834" lon="2.95899">
        <ele>1197</ele>
        <time>2016-11-20T20:21:56Z</time>
      </trkpt>
      <trkpt lat="44.60661" lon="2.95779">
        <ele>1189</ele>
        <time>2016-11-20T20:23:56Z</time>
      </trkpt>
      <trkpt lat="44.60611" lon="2.9568">
        <ele>1174</ele>
        <time>2016-11-20T20:25:56Z</time>
      </trkpt>
      <trkpt lat="44.60557" lon="2.95638">
        <ele>1160</ele>
        <time>2016-11-20T20:27:56Z</time>
      </trkpt>
      <trkpt lat="44.60557" lon="2.9556">
        <ele>1159</ele>
        <time>2016-11-20T20:29:56Z</time>
      </trkpt>
      <trkpt lat="44.60449" lon="2.95487">
        <ele>1140</ele>
        <time>2016-11-20T20:31:56Z</time>
      </trkpt>
      <trkpt lat="44.60453" lon="2.95554">
        <ele>1140</ele>
        <time>2016-11-20T20:33:56Z</time>
      </trkpt>
      <trkpt lat="44.60349" lon="2.95549">
        <ele>1121</ele>
        <time>2016-11-20T20:35:56Z</time>
      </trkpt>
      <trkpt lat="44.60284" lon="2.95408">
        <ele>1116</ele>
        <time>2016-11-20T20:37:56Z</time>
      </trkpt>
      <trkpt lat="44.60288" lon="2.95304">
        <ele>1110</ele>
        <time>2016-11-20T20:39:56Z</time>
      </trkpt>
      <trkpt lat="44.60241" lon="2.95231">
        <ele>1100</ele>
        <time>2016-11-20T20:41:56Z</time>
      </trkpt>
      <trkpt lat="44.60259" lon="2.95173">
        <ele>1098</ele>
        <time>2016-11-20T20:43:56Z</time>
      </trkpt>
      <trkpt lat="44.60182" lon="2.9522">
        <ele>1090</ele>
        <time>2016-11-20T20:45:56Z</time>
      </trkpt>
      <trkpt lat="44.60172" lon="2.95179">
        <ele>1086</ele>
        <time>2016-11-20T20:47:56Z</time>
      </trkpt>
      <trkpt lat="44.60121" lon="2.95179">
        <ele>1075</ele>
        <time>2016-11-20T20:49:56Z</time>
      </trkpt>
      <trkpt lat="44.60125" lon="2.95079">
        <ele>1069</ele>
        <time>2016-11-20T20:51:56Z</time>
      </trkpt>
      <trkpt lat="44.5997" lon="2.94938">
        <ele>1044</ele>
        <time>2016-11-20T20:53:56Z</time>
      </trkpt>
      <trkpt lat="44.60046" lon="2.94829">
        <ele>1042</ele>
        <time>2016-11-20T20:55:56Z</time>
      </trkpt>
      <trkpt lat="44.60164" lon="2.94782">
        <ele>1033</ele>
        <time>2016-11-20T20:57:56Z</time>
      </trkpt>
      <trkpt lat="44.59899" lon="2.94432">
        <ele>992</ele>
        <time>2016-11-20T20:59:56Z</time>
      </trkpt>
      <trkpt lat="44.59816" lon="2.94338">
        <ele>975</ele>
        <time>2016-11-20T21:01:56Z</time>
      </trkpt>
      <trkpt lat="44.59773" lon="2.94135">
        <ele>976</ele>
        <time>2016-11-20T21:03:56Z</time>
      </trkpt>
      <trkpt lat="44.596" lon="2.93884">
        <ele>922</ele>
        <time>2016-11-20T21:05:56Z</time>
      </trkpt>
      <trkpt lat="44.59615" lon="2.93718">
        <ele>923</ele>
        <time>2016-11-20T21:07:56Z</time>
      </trkpt>
      <trkpt lat="44.595" lon="2.93478">
        <ele>902</ele>
        <time>2016-11-20T21:09:56Z</time>
      </trkpt>
      <trkpt lat="44.59352" lon="2.93066">
        <ele>871</ele>
        <time>2016-11-20T21:11:56Z</time>
      </trkpt>
      <trkpt lat="44.59316" lon="2.92821">
        <ele>857</ele>
        <time>2016-11-20T21:13:56Z</time>
      </trkpt>
      <trkpt lat="44.59234" lon="2.92497">
        <ele>835</ele>
        <time>2016-11-20T21:15:56Z</time>
      </trkpt>
      <trkpt lat="44.59135" lon="2.924">
        <ele>817</ele>
        <time>2016-11-20T21:17:56Z</time>
      </trkpt>
      <trkpt lat="44.59017" lon="2.92238">
        <ele>805</ele>
        <time>2016-11-20T21:19:56Z</time>
      </trkpt>
      <trkpt lat="44.59045" lon="2.9216">
        <ele>814</ele>
        <time>2016-11-20T21:21:56Z</time>
      </trkpt>
      <trkpt lat="44.59009" lon="2.92087">
        <ele>811</ele>
        <time>2016-11-20T21:23:56Z</time>
      </trkpt>
      <trkpt lat="44.58894" lon="2.92139">
        <ele>798</ele>
        <time>2016-11-20T21:25:56Z</time>
      </trkpt>
      <trkpt lat="44.58898" lon="2.92212">
        <ele>803</ele>
        <time>2016-11-20T21:27:56Z</time>
      </trkpt>
      <trkpt lat="44.58855" lon="2.92201">
        <ele>811</ele>
        <time>2016-11-20T21:29:56Z</time>
      </trkpt>
      <trkpt lat="44.58891" lon="2.92374">
        <ele>838</ele>
        <time>2016-11-20T21:31:56Z</time>
      </trkpt>
      <trkpt lat="44.58948" lon="2.92702">
        <ele>864</ele>
        <time>2016-11-20T21:33:56Z</time>
      </trkpt>
      <trkpt lat="44.58952" lon="2.9287">
        <ele>876</ele>
        <time>2016-11-20T21:35:56Z</time>
      </trkpt>
      <trkpt lat="44.58984" lon="2.92911">
        <ele>866</ele>
        <time>2016-11-20T21:37:56Z</time>
      </trkpt>
      <trkpt lat="44.58974" lon="2.93209">
        <ele>883</ele>
        <time>2016-11-20T21:39:56Z</time>
      </trkpt>
      <trkpt lat="44.59042" lon="2.93715">
        <ele>919</ele>
        <time>2016-11-20T21:41:56Z</time>
      </trkpt>
      <trkpt lat="44.59027" lon="2.94013">
        <ele>960</ele>
        <time>2016-11-20T21:43:56Z</time>
      </trkpt>
      <trkpt lat="44.58909" lon="2.94368">
        <ele>1013</ele>
        <time>2016-11-20T21:45:56Z</time>
      </trkpt>
      <trkpt lat="44.59017" lon="2.94644">
        <ele>1014</ele>
        <time>2016-11-20T21:47:56Z</time>
      </trkpt>
      <trkpt lat="44.58978" lon="2.94759">
        <ele>1046</ele>
        <time>2016-11-20T21:49:56Z</time>
      </trkpt>
      <trkpt lat="44.58852" lon="2.94718">
        <ele>1068</ele>
        <time>2016-11-20T21:51:56Z</time>
      </trkpt>
      <trkpt lat="44.58816" lon="2.94858">
        <ele>1081</ele>
        <time>2016-11-20T21:53:56Z</time>
      </trkpt>
      <trkpt lat="44.58705" lon="2.94858">
        <ele>1084</ele>
        <time>2016-11-20T21:55:56Z</time>
      </trkpt>
      <trkpt lat="44.58665" lon="2.94926">
        <ele>1092</ele>
        <time>2016-11-20T21:57:56Z</time>
      </trkpt>
      <trkpt lat="44.58579" lon="2.94963">
        <ele>1095</ele>
        <time>2016-11-20T21:59:56Z</time>
      </trkpt>
      <trkpt lat="44.58504" lon="2.95067">
        <ele>1105</ele>
        <time>2016-11-20T22:01:56Z</time>
      </trkpt>
      <trkpt lat="44.58532" lon="2.9514">
        <ele>1112</ele>
        <time>2016-11-20T22:03:56Z</time>
      </trkpt>
      <trkpt lat="44.58461" lon="2.95276">
        <ele>1123</ele>
        <time>2016-11-20T22:05:56Z</time>
      </trkpt>
      <trkpt lat="44.58317" lon="2.95339">
        <ele>1119</ele>
        <time>2016-11-20T22:07:56Z</time>
      </trkpt>
      <trkpt lat="44.58213" lon="2.95542">
        <ele>1125</ele>
        <time>2016-11-20T22:09:56Z</time>
      </trkpt>
      <trkpt lat="44.58054" lon="2.95912">
        <ele>1125</ele>
        <time>2016-11-20T22:11:56Z</time>
      </trkpt>
      <trkpt lat="44.57971" lon="2.96095">
        <ele>1118</ele>
        <time>2016-11-20T22:13:56Z</time>
      </trkpt>
      <trkpt lat="44.57957" lon="2.96262">
        <ele>1123</ele>
        <time>2016-11-20T22:15:56Z</time>
      </trkpt>
      <trkpt lat="44.57892" lon="2.9646">
        <ele>1140</ele>
        <time>2016-11-20T22:17:56Z</time>
      </trkpt>
      <trkpt lat="44.57852" lon="2.96663">
        <ele>1161</ele>
        <time>2016-11-20T22:19:56Z</time>
      </trkpt>
      <trkpt lat="44.57727" lon="2.96893">
        <ele>1157</ele>
        <time>2016-11-20T22:21:56Z</time>
      </trkpt>
      <trkpt lat="44.57763" lon="2.97285">
        <ele>1154</ele>
        <time>2016-11-20T22:23:56Z</time>
      </trkpt>
      <trkpt lat="44.57709" lon="2.97551">
        <ele>1136</ele>
        <time>2016-11-20T22:25:56Z</time>
      </trkpt>
      <trkpt lat="44.57777" lon="2.97765">
        <ele>1123</ele>
        <time>2016-11-20T22:27:56Z</time>
      </trkpt>
      <trkpt lat="44.57702" lon="2.9788">
        <ele>1108</ele>
        <time>2016-11-20T22:29:56Z</time>
      </trkpt>
      <trkpt lat="44.57752" lon="2.98036">
        <ele>1108</ele>
        <time>2016-11-20T22:31:56Z</time>
      </trkpt>
      <trkpt lat="44.57763" lon="2.98193">
        <ele>1100</ele>
        <time>2016-11-20T22:33:56Z</time>
      </trkpt>
      <trkpt lat="44.57694" lon="2.98266">
        <ele>1091</ele>
        <time>2016-11-20T22:35:56Z</time>
      </trkpt>
      <trkpt lat="44.57752" lon="2.98334">
        <ele>1097</ele>
        <time>2016-11-20T22:37:56Z</time>
      </trkpt>
      <trkpt lat="44.57784" lon="2.986">
        <ele>1107</ele>
        <time>2016-11-20T22:39:56Z</time>
      </trkpt>
      <trkpt lat="44.57874" lon="2.98684">
        <ele>1111</ele>
        <time>2016-11-20T22:41:56Z</time>
      </trkpt>
      <trkpt lat="44.57921" lon="2.9884">
        <ele>1113</ele>
        <time>2016-11-20T22:43:56Z</time>
      </trkpt>
      <trkpt lat="44.57964" lon="2.98887">
        <ele>1121</ele>
        <time>2016-11-20T22:45:56Z</time>
      </trkpt>
      <trkpt lat="44.57964" lon="2.99153">
        <ele>1107</ele>
        <time>2016-11-20T22:47:56Z</time>
      </trkpt>
      <trkpt lat="44.58068" lon="2.99341">
        <ele>1104</ele>
        <time>2016-11-20T22:49:56Z</time>
      </trkpt>
      <trkpt lat="44.5819" lon="2.99401">
        <ele>1109</ele>
        <time>2016-11-20T22:51:56Z</time>
      </trkpt>
      <trkpt lat="44.58466" lon="2.99432">
        <ele>1133</ele>
        <time>2016-11-20T22:53:56Z</time>
      </trkpt>
      <trkpt lat="44.58495" lon="2.99558">
        <ele>1131</ele>
        <time>2016-11-20T22:55:56Z</time>
      </trkpt>
      <trkpt lat="44.5857" lon="2.99526">
        <ele>1146</ele>
        <time>2016-11-20T22:57:56Z</time>
      </trkpt>
      <trkpt lat="44.58531" lon="2.99678">
        <ele>1143</ele>
        <time>2016-11-20T22:59:56Z</time>
      </trkpt>
      <trkpt lat="44.58682" lon="2.9997">
        <ele>1167</ele>
        <time>2016-11-20T23:01:56Z</time>
      </trkpt>
      <trkpt lat="44.58642" lon="3.00111">
        <ele>1164</ele>
        <time>2016-11-20T23:03:56Z</time>
      </trkpt>
      <trkpt lat="44.58665" lon="3.00393">
        <ele>1174</ele>
        <time>2016-11-20T23:05:56Z</time>
      </trkpt>
      <trkpt lat="44.58633" lon="3.00748">
        <ele>1203</ele>
        <time>2016-11-20T23:07:56Z</time>
      </trkpt>
      <trkpt lat="44.58561" lon="3.01019">
        <ele>1206</ele>
        <time>2016-11-20T23:09:56Z</time>
      </trkpt>
      <trkpt lat="44.58419" lon="3.01259">
        <ele>1200</ele>
        <time>2016-11-20T23:11:56Z</time>
      </trkpt>
      <trkpt lat="44.58402" lon="3.01552">
        <ele>1235</ele>
        <time>2016-11-20T23:13:56Z</time>
      </trkpt>
      <trkpt lat="44.58427" lon="3.01688">
        <ele>1248</ele>
        <time>2016-11-20T23:15:56Z</time>
      </trkpt>
      <trkpt lat="44.58488" lon="3.01557">
        <ele>1254</ele>
        <time>2016-11-20T23:17:56Z</time>
      </trkpt>
      <trkpt lat="44.58664" lon="3.0162">
        <ele>1278</ele>
        <time>2016-11-20T23:19:56Z</time>
      </trkpt>
      <trkpt lat="44.58715" lon="3.01897">
        <ele>1296</ele>
        <time>2016-11-20T23:21:56Z</time>
      </trkpt>
      <trkpt lat="44.5869" lon="3.01996">
        <ele>1298</ele>
        <time>2016-11-20T23:23:56Z</time>
      </trkpt>
      <trkpt lat="44.587" lon="3.02126">
        <ele>1310</ele>
        <time>2016-11-20T23:25:56Z</time>
      </trkpt>
      <trkpt lat="44.586" lon="3.022">
        <ele>1310</ele>
        <time>2016-11-20T23:27:56Z</time>
      </trkpt>
      <trkpt lat="44.58765" lon="3.02189">
        <ele>1323</ele>
        <time>2016-11-20T23:29:56Z</time>
      </trkpt>
      <trkpt lat="44.58779" lon="3.02106">
        <ele>1320</ele>
        <time>2016-11-20T23:31:56Z</time>
      </trkpt>
      <trkpt lat="44.58862" lon="3.02012">
        <ele>1328</ele>
        <time>2016-11-20T23:33:56Z</time>
      </trkpt>
      <trkpt lat="44.5888" lon="3.01881">
        <ele>1330</ele>
        <time>2016-11-20T23:35:56Z</time>
      </trkpt>
      <trkpt lat="44.59052" lon="3.01792">
        <ele>1336</ele>
        <time>2016-11-20T23:37:56Z</time>
      </trkpt>
      <trkpt lat="44.59103" lon="3.01939">
        <ele>1335</ele>
        <time>2016-11-20T23:39:56Z</time>
      </trkpt>
      <trkpt lat="44.59225" lon="3.02059">
        <ele>1335</ele>
        <time>2016-11-20T23:41:56Z</time>
      </trkpt>
      <trkpt lat="44.59221" lon="3.02142">
        <ele>1339</ele>
        <time>2016-11-20T23:43:56Z</time>
      </trkpt>
      <trkpt lat="44.59695" lon="3.02447">
        <ele>1338</ele>
        <time>2016-11-20T23:45:56Z</time>
      </trkpt>
      <trkpt lat="44.59861" lon="3.02865">
        <ele>1330</ele>
        <time>2016-11-20T23:47:56Z</time>
      </trkpt>
      <trkpt lat="44.59778" lon="3.03204">
        <ele>1342</ele>
        <time>2016-11-20T23:49:56Z</time>
      </trkpt>
      <trkpt lat="44.59976" lon="3.03162">
        <ele>1323</ele>
        <time>2016-11-20T23:51:56Z</time>
      </trkpt>
      <trkpt lat="44.6008" lon="3.0311">
        <ele>1320</ele>
        <time>2016-11-20T23:53:56Z</time>
      </trkpt>
      <trkpt lat="44.60159" lon="3.02995">
        <ele>1318</ele>
        <time>2016-11-20T23:55:56Z</time>
      </trkpt>
      <trkpt lat="44.60249" lon="3.03016">
        <ele>1318</ele>
        <time>2016-11-20T23:57:56Z</time>
      </trkpt>
      <trkpt lat="44.60242" lon="3.03288">
        <ele>1316</ele>
        <time>2016-11-20T23:59:56Z</time>
      </trkpt>
      <trkpt lat="44.60515" lon="3.03559">
        <ele>1314</ele>
        <time>2016-11-21T00:01:56Z</time>
      </trkpt>
      <trkpt lat="44.60569" lon="3.03663">
        <ele>1315</ele>
        <time>2016-11-21T00:03:56Z</time>
      </trkpt>
      <trkpt lat="44.60622" lon="3.03679">
        <ele>1313</ele>
        <time>2016-11-21T00:05:56Z</time>
      </trkpt>
      <trkpt lat="44.60651" lon="3.03752">
        <ele>1315</ele>
        <time>2016-11-21T00:07:56Z</time>
      </trkpt>
      <trkpt lat="44.60784" lon="3.03836">
        <ele>1309</ele>
        <time>2016-11-21T00:09:56Z</time>
      </trkpt>
      <trkpt lat="44.60883" lon="3.04133">
        <ele>1300</ele>
        <time>2016-11-21T00:11:56Z</time>
      </trkpt>
      <trkpt lat="44.60858" lon="3.04263">
        <ele>1301</ele>
        <time>2016-11-21T00:13:56Z</time>
      </trkpt>
      <trkpt lat="44.60887" lon="3.04357">
        <ele>1298</ele>
        <time>2016-11-21T00:15:56Z</time>
      </trkpt>
      <trkpt lat="44.60912" lon="3.0467">
        <ele>1295</ele>
        <time>2016-11-21T00:17:56Z</time>
      </trkpt>
      <trkpt lat="44.61066" lon="3.04947">
        <ele>1287</ele>
        <time>2016-11-21T00:19:56Z</time>
      </trkpt>
      <trkpt lat="44.61102" lon="3.05057">
        <ele>1283</ele>
        <time>2016-11-21T00:21:56Z</time>
      </trkpt>
      <trkpt lat="44.61199" lon="3.05046">
        <ele>1276</ele>
        <time>2016-11-21T00:23:56Z</time>
      </trkpt>
      <trkpt lat="44.61314" lon="3.05124">
        <ele>1272</ele>
        <time>2016-11-21T00:25:56Z</time>
      </trkpt>
      <trkpt lat="44.61372" lon="3.0525">
        <ele>1268</ele>
        <time>2016-11-21T00:27:56Z</time>
      </trkpt>
      <trkpt lat="44.61465" lon="3.05208">
        <ele>1268</ele>
        <time>2016-11-21T00:29:56Z</time>
      </trkpt>
      <trkpt lat="44.61591" lon="3.0525">
        <ele>1259</ele>
        <time>2016-11-21T00:31:56Z</time>
      </trkpt>
      <trkpt lat="44.61623" lon="3.0514">
        <ele>1259</ele>
        <time>2016-11-21T00:33:56Z</time>
      </trkpt>
      <trkpt lat="44.61702" lon="3.04989">
        <ele>1251</ele>
        <time>2016-11-21T00:35:56Z</time>
      </trkpt>
      <trkpt lat="44.6204" lon="3.05124">
        <ele>1251</ele>
        <time>2016-11-21T00:37:56Z</time>
      </trkpt>
      <trkpt lat="44.62201" lon="3.05178">
        <ele>1254</ele>
        <time>2016-11-21T00:39:56Z</time>
      </trkpt>
      <trkpt lat="44.62395" lon="3.05522">
        <ele>1250</ele>
        <time>2016-11-21T00:41:56Z</time>
      </trkpt>
      <trkpt lat="44.62665" lon="3.05616">
        <ele>1237</ele>
        <time>2016-11-21T00:43:56Z</time>
      </trkpt>
      <trkpt lat="44.62995" lon="3.05825">
        <ele>1233</ele>
        <time>2016-11-21T00:45:56Z</time>
      </trkpt>
      <trkpt lat="44.63127" lon="3.05846">
        <ele>1233</ele>
        <time>2016-11-21T00:47:56Z</time>
      </trkpt>
      <trkpt lat="44.63816" lon="3.06274">
        <ele>1218</ele>
        <time>2016-11-21T00:49:56Z</time>
      </trkpt>
      <trkpt lat="44.6387" lon="3.06378">
        <ele>1217</ele>
        <time>2016-11-21T00:51:56Z</time>
      </trkpt>
      <trkpt lat="44.64" lon="3.06415">
        <ele>1217</ele>
        <time>2016-11-21T00:53:56Z</time>
      </trkpt>
      <trkpt lat="44.6409" lon="3.06504">
        <ele>1218</ele>
        <time>2016-11-21T00:55:56Z</time>
      </trkpt>
      <trkpt lat="44.64373" lon="3.06431">
        <ele>1214</ele>
        <time>2016-11-21T00:57:56Z</time>
      </trkpt>
      <trkpt lat="44.64762" lon="3.06535">
        <ele>1220</ele>
        <time>2016-11-21T00:59:56Z</time>
      </trkpt>
      <trkpt lat="44.64833" lon="3.06483">
        <ele>1221</ele>
        <time>2016-11-21T01:01:56Z</time>
      </trkpt>
      <trkpt lat="44.64898" lon="3.06138">
        <ele>1221</ele>
        <time>2016-11-21T01:03:56Z</time>
      </trkpt>
      <trkpt lat="44.64984" lon="3.05924">
        <ele>1219</ele>
        <time>2016-11-21T01:05:56Z</time>
      </trkpt>
      <trkpt lat="44.65128" lon="3.05898">
        <ele>1213</ele>
        <time>2016-11-21T01:07:56Z</time>
      </trkpt>
      <trkpt lat="44.65232" lon="3.05757">
        <ele>1209</ele>
        <time>2016-11-21T01:09:56Z</time>
      </trkpt>
      <trkpt lat="44.65146" lon="3.05658">
        <ele>1208</ele>
        <time>2016-11-21T01:11:56Z</time>
      </trkpt>
      <trkpt lat="44.65196" lon="3.05512">
        <ele>1208</ele>
        <time>2016-11-21T01:13:56Z</time>
      </trkpt>
      <trkpt lat="44.65168" lon="3.05423">
        <ele>1206</ele>
        <time>2016-11-21T01:15:56Z</time>
      </trkpt>
      <trkpt lat="44.65347" lon="3.05167">
        <ele>1202</ele>
        <time>2016-11-21T01:17:56Z</time>
      </trkpt>
      <trkpt lat="44.65466" lon="3.05146">
        <ele>1203</ele>
        <time>2016-11-21T01:19:56Z</time>
      </trkpt>
      <trkpt lat="44.65685" lon="3.05193">
        <ele>1195</ele>
        <time>2016-11-21T01:21:56Z</time>
      </trkpt>
      <trkpt lat="44.65972" lon="3.05167">
        <ele>1186</ele>
        <time>2016-11-21T01:23:56Z</time>
      </trkpt>
      <trkpt lat="44.66062" lon="3.05052">
        <ele>1183</ele>
        <time>2016-11-21T01:25:56Z</time>
      </trkpt>
      <trkpt lat="44.66163" lon="3.04927">
        <ele>1177</ele>
        <time>2016-11-21T01:27:56Z</time>
      </trkpt>
      <trkpt lat="44.66214" lon="3.04655">
        <ele>1177</ele>
        <time>2016-11-21T01:29:56Z</time>
      </trkpt>
    </trkseg>
  </trk>
</gpx>